sensor_id;sensor_type;location;lat;lon;timestamp;temperature;humidity
24462;DHT22;12631;50.860;5.714;2022-12-18T00:01:33;-6.60;99.90
24462;DHT22;12631;50.860;5.714;2022-12-18T00:04:02;-6.50;99.90
24462;DHT22;12631;50.860;5.714;2022-12-18T00:06:34;-6.50;99.90
24462;DHT22;12631;50.860;5.714;2022-12-18T00:09:03;-6.50;99.90
24462;DHT22;12631;50.860;5.714;2022-12-18T00:11:31;-6.60;99.90
24462;DHT22;12631;50.860;5.714;2022-12-18T00:13:59;-6.60;99.90
24462;DHT22;12631;50.860;5.714;2022-12-18T00:16:29;-6.70;99.90
24462;DHT22;12631;50.860;5.714;2022-12-18T00:18:59;-6.90;99.90
24462;DHT22;12631;50.860;5.714;2022-12-18T00:21:27;-6.90;99.90
24462;DHT22;12631;50.860;5.714;2022-12-18T00:23:55;-7.00;99.90
24462;DHT22;12631;50.860;5.714;2022-12-18T00:26:26;-7.00;99.90
24462;DHT22;12631;50.860;5.714;2022-12-18T00:28:53;-7.00;99.90
24462;DHT22;12631;50.860;5.714;2022-12-18T00:31:23;-7.10;99.90
24462;DHT22;12631;50.860;5.714;2022-12-18T00:33:51;-7.00;99.90
24462;DHT22;12631;50.860;5.714;2022-12-18T00:36:19;-7.00;99.90
24462;DHT22;12631;50.860;5.714;2022-12-18T00:38:47;-6.90;99.90
24462;DHT22;12631;50.860;5.714;2022-12-18T00:41:16;-7.00;99.90
24462;DHT22;12631;50.860;5.714;2022-12-18T00:44:07;-7.10;99.90
24462;DHT22;12631;50.860;5.714;2022-12-18T00:46:33;-7.20;99.90
24462;DHT22;12631;50.860;5.714;2022-12-18T00:49:01;-7.30;99.90
24462;DHT22;12631;50.860;5.714;2022-12-18T00:51:28;-7.20;99.90
24462;DHT22;12631;50.860;5.714;2022-12-18T00:53:55;-7.30;99.90
24462;DHT22;12631;50.860;5.714;2022-12-18T00:56:23;-7.50;99.90
24462;DHT22;12631;50.860;5.714;2022-12-18T00:58:50;-7.50;99.90
24462;DHT22;12631;50.860;5.714;2022-12-18T01:01:19;-7.40;99.90
24462;DHT22;12631;50.860;5.714;2022-12-18T01:03:46;-7.30;99.90
24462;DHT22;12631;50.860;5.714;2022-12-18T01:06:15;-7.30;99.90
24462;DHT22;12631;50.860;5.714;2022-12-18T01:08:43;-7.20;99.90
24462;DHT22;12631;50.860;5.714;2022-12-18T01:11:11;-7.30;99.90
24462;DHT22;12631;50.860;5.714;2022-12-18T01:13:39;-7.40;99.90
24462;DHT22;12631;50.860;5.714;2022-12-18T01:16:06;-7.50;99.90
24462;DHT22;12631;50.860;5.714;2022-12-18T01:18:36;-7.60;99.90
24462;DHT22;12631;50.860;5.714;2022-12-18T01:21:06;-7.60;99.90
24462;DHT22;12631;50.860;5.714;2022-12-18T01:23:34;-7.60;99.90
24462;DHT22;12631;50.860;5.714;2022-12-18T01:26:05;-7.50;99.90
24462;DHT22;12631;50.860;5.714;2022-12-18T01:28:32;-7.50;99.90
24462;DHT22;12631;50.860;5.714;2022-12-18T01:31:13;-7.50;99.90
24462;DHT22;12631;50.860;5.714;2022-12-18T01:33:42;-7.50;99.90
24462;DHT22;12631;50.860;5.714;2022-12-18T01:36:15;-7.50;99.90
24462;DHT22;12631;50.860;5.714;2022-12-18T01:38:42;-7.50;99.90
24462;DHT22;12631;50.860;5.714;2022-12-18T01:41:09;-7.50;99.90
24462;DHT22;12631;50.860;5.714;2022-12-18T01:43:44;-7.50;99.90
24462;DHT22;12631;50.860;5.714;2022-12-18T01:46:12;-7.50;99.90
24462;DHT22;12631;50.860;5.714;2022-12-18T01:48:41;-7.60;99.90
24462;DHT22;12631;50.860;5.714;2022-12-18T01:51:11;-7.60;99.90
24462;DHT22;12631;50.860;5.714;2022-12-18T01:53:41;-7.70;99.90
24462;DHT22;12631;50.860;5.714;2022-12-18T01:56:13;-7.70;99.90
24462;DHT22;12631;50.860;5.714;2022-12-18T01:58:46;-7.80;99.90
24462;DHT22;12631;50.860;5.714;2022-12-18T02:01:15;-7.70;99.90
24462;DHT22;12631;50.860;5.714;2022-12-18T02:03:45;-7.70;99.90
24462;DHT22;12631;50.860;5.714;2022-12-18T02:06:16;-7.60;99.90
24462;DHT22;12631;50.860;5.714;2022-12-18T02:08:53;-7.60;99.90
24462;DHT22;12631;50.860;5.714;2022-12-18T02:11:32;-7.50;99.90
24462;DHT22;12631;50.860;5.714;2022-12-18T02:14:07;-7.50;99.90
24462;DHT22;12631;50.860;5.714;2022-12-18T02:16:43;-7.60;99.90
24462;DHT22;12631;50.860;5.714;2022-12-18T02:19:27;-7.40;99.90
24462;DHT22;12631;50.860;5.714;2022-12-18T02:22:04;-7.40;99.90
24462;DHT22;12631;50.860;5.714;2022-12-18T02:24:37;-7.30;99.90
24462;DHT22;12631;50.860;5.714;2022-12-18T02:27:11;-7.30;99.90
24462;DHT22;12631;50.860;5.714;2022-12-18T02:29:40;-7.20;99.90
24462;DHT22;12631;50.860;5.714;2022-12-18T02:32:13;-7.20;99.90
24462;DHT22;12631;50.860;5.714;2022-12-18T02:34:41;-7.10;99.90
24462;DHT22;12631;50.860;5.714;2022-12-18T02:37:12;-7.20;99.90
24462;DHT22;12631;50.860;5.714;2022-12-18T02:39:43;-7.20;99.90
24462;DHT22;12631;50.860;5.714;2022-12-18T02:42:13;-7.20;99.90
24462;DHT22;12631;50.860;5.714;2022-12-18T02:44:43;-7.10;99.90
24462;DHT22;12631;50.860;5.714;2022-12-18T02:47:12;-7.10;99.90
24462;DHT22;12631;50.860;5.714;2022-12-18T02:49:48;-7.10;99.90
24462;DHT22;12631;50.860;5.714;2022-12-18T02:52:26;-7.10;99.90
24462;DHT22;12631;50.860;5.714;2022-12-18T02:55:00;-7.10;99.90
24462;DHT22;12631;50.860;5.714;2022-12-18T02:57:36;-7.20;99.90
24462;DHT22;12631;50.860;5.714;2022-12-18T03:00:11;-7.30;99.90
24462;DHT22;12631;50.860;5.714;2022-12-18T03:02:43;-7.30;99.90
24462;DHT22;12631;50.860;5.714;2022-12-18T03:05:16;-7.20;99.90
24462;DHT22;12631;50.860;5.714;2022-12-18T03:07:51;-7.30;99.90
24462;DHT22;12631;50.860;5.714;2022-12-18T03:10:25;-7.30;99.90
24462;DHT22;12631;50.860;5.714;2022-12-18T03:13:00;-7.40;99.90
24462;DHT22;12631;50.860;5.714;2022-12-18T03:15:30;-7.40;99.90
24462;DHT22;12631;50.860;5.714;2022-12-18T03:18:02;-7.40;99.90
24462;DHT22;12631;50.860;5.714;2022-12-18T03:20:34;-7.40;99.90
24462;DHT22;12631;50.860;5.714;2022-12-18T03:23:06;-7.40;99.90
24462;DHT22;12631;50.860;5.714;2022-12-18T03:25:34;-7.40;99.90
24462;DHT22;12631;50.860;5.714;2022-12-18T03:28:05;-7.40;99.90
24462;DHT22;12631;50.860;5.714;2022-12-18T03:30:38;-7.30;99.90
24462;DHT22;12631;50.860;5.714;2022-12-18T03:33:08;-7.30;99.90
24462;DHT22;12631;50.860;5.714;2022-12-18T03:35:39;-7.30;99.90
24462;DHT22;12631;50.860;5.714;2022-12-18T03:38:07;-7.20;99.90
24462;DHT22;12631;50.860;5.714;2022-12-18T03:40:41;-7.20;99.90
24462;DHT22;12631;50.860;5.714;2022-12-18T03:43:18;-7.30;99.90
24462;DHT22;12631;50.860;5.714;2022-12-18T03:45:52;-7.30;99.90
24462;DHT22;12631;50.860;5.714;2022-12-18T03:48:26;-7.30;99.90
24462;DHT22;12631;50.860;5.714;2022-12-18T03:50:57;-7.40;99.90
24462;DHT22;12631;50.860;5.714;2022-12-18T03:53:32;-7.40;99.90
24462;DHT22;12631;50.860;5.714;2022-12-18T03:56:02;-7.30;99.90
24462;DHT22;12631;50.860;5.714;2022-12-18T03:58:34;-7.40;99.90
24462;DHT22;12631;50.860;5.714;2022-12-18T04:01:06;-7.40;99.90
24462;DHT22;12631;50.860;5.714;2022-12-18T04:03:37;-7.40;99.90
24462;DHT22;12631;50.860;5.714;2022-12-18T04:06:06;-7.40;99.90
24462;DHT22;12631;50.860;5.714;2022-12-18T04:08:34;-7.40;99.90
24462;DHT22;12631;50.860;5.714;2022-12-18T04:11:02;-7.50;99.90
24462;DHT22;12631;50.860;5.714;2022-12-18T04:13:34;-7.50;99.90
24462;DHT22;12631;50.860;5.714;2022-12-18T04:16:02;-7.60;99.90
24462;DHT22;12631;50.860;5.714;2022-12-18T04:18:29;-7.50;99.90
24462;DHT22;12631;50.860;5.714;2022-12-18T04:20:56;-7.40;99.90
24462;DHT22;12631;50.860;5.714;2022-12-18T04:23:24;-7.40;99.90
24462;DHT22;12631;50.860;5.714;2022-12-18T04:25:51;-7.40;99.90
24462;DHT22;12631;50.860;5.714;2022-12-18T04:28:18;-7.40;99.90
24462;DHT22;12631;50.860;5.714;2022-12-18T04:30:47;-7.40;99.90
24462;DHT22;12631;50.860;5.714;2022-12-18T04:33:17;-7.40;99.90
24462;DHT22;12631;50.860;5.714;2022-12-18T04:35:44;-7.40;99.90
24462;DHT22;12631;50.860;5.714;2022-12-18T04:38:12;-7.40;99.90
24462;DHT22;12631;50.860;5.714;2022-12-18T04:40:39;-7.40;99.90
24462;DHT22;12631;50.860;5.714;2022-12-18T04:43:06;-7.40;99.90
24462;DHT22;12631;50.860;5.714;2022-12-18T04:45:34;-7.40;99.90
24462;DHT22;12631;50.860;5.714;2022-12-18T04:48:03;-7.50;99.90
24462;DHT22;12631;50.860;5.714;2022-12-18T04:50:30;-7.50;99.90
24462;DHT22;12631;50.860;5.714;2022-12-18T04:52:58;-7.50;99.90
24462;DHT22;12631;50.860;5.714;2022-12-18T04:55:25;-7.50;99.90
24462;DHT22;12631;50.860;5.714;2022-12-18T04:57:53;-7.50;99.90
24462;DHT22;12631;50.860;5.714;2022-12-18T05:00:20;-7.60;99.90
24462;DHT22;12631;50.860;5.714;2022-12-18T05:02:48;-7.60;99.90
24462;DHT22;12631;50.860;5.714;2022-12-18T05:05:17;-7.70;99.90
24462;DHT22;12631;50.860;5.714;2022-12-18T05:07:44;-7.70;99.90
24462;DHT22;12631;50.860;5.714;2022-12-18T05:10:11;-7.70;99.90
24462;DHT22;12631;50.860;5.714;2022-12-18T05:12:38;-7.70;99.90
24462;DHT22;12631;50.860;5.714;2022-12-18T05:15:24;-7.70;99.90
24462;DHT22;12631;50.860;5.714;2022-12-18T05:17:51;-7.80;99.90
24462;DHT22;12631;50.860;5.714;2022-12-18T05:20:20;-7.80;99.90
24462;DHT22;12631;50.860;5.714;2022-12-18T05:22:47;-7.70;99.90
24462;DHT22;12631;50.860;5.714;2022-12-18T05:25:14;-7.70;99.90
24462;DHT22;12631;50.860;5.714;2022-12-18T05:27:42;-7.60;99.90
24462;DHT22;12631;50.860;5.714;2022-12-18T05:30:10;-7.70;99.90
24462;DHT22;12631;50.860;5.714;2022-12-18T05:32:38;-7.70;99.90
24462;DHT22;12631;50.860;5.714;2022-12-18T05:35:07;-7.60;99.90
24462;DHT22;12631;50.860;5.714;2022-12-18T05:37:36;-7.50;99.90
24462;DHT22;12631;50.860;5.714;2022-12-18T05:40:04;-7.50;99.90
24462;DHT22;12631;50.860;5.714;2022-12-18T05:42:31;-7.40;99.90
24462;DHT22;12631;50.860;5.714;2022-12-18T05:44:58;-7.30;99.90
24462;DHT22;12631;50.860;5.714;2022-12-18T05:47:26;-7.40;99.90
24462;DHT22;12631;50.860;5.714;2022-12-18T05:49:54;-7.30;99.90
24462;DHT22;12631;50.860;5.714;2022-12-18T05:52:21;-7.40;99.90
24462;DHT22;12631;50.860;5.714;2022-12-18T05:54:50;-7.50;99.90
24462;DHT22;12631;50.860;5.714;2022-12-18T05:57:17;-7.40;99.90
24462;DHT22;12631;50.860;5.714;2022-12-18T05:59:44;-7.40;99.90
24462;DHT22;12631;50.860;5.714;2022-12-18T06:02:11;-7.50;99.90
24462;DHT22;12631;50.860;5.714;2022-12-18T06:04:38;-7.60;99.90
24462;DHT22;12631;50.860;5.714;2022-12-18T06:07:06;-7.70;99.90
24462;DHT22;12631;50.860;5.714;2022-12-18T06:09:33;-7.70;99.90
24462;DHT22;12631;50.860;5.714;2022-12-18T06:12:01;-7.70;99.90
24462;DHT22;12631;50.860;5.714;2022-12-18T06:14:28;-7.70;99.90
24462;DHT22;12631;50.860;5.714;2022-12-18T06:16:56;-7.70;99.90
24462;DHT22;12631;50.860;5.714;2022-12-18T06:19:23;-7.70;99.90
24462;DHT22;12631;50.860;5.714;2022-12-18T06:21:50;-7.80;99.90
24462;DHT22;12631;50.860;5.714;2022-12-18T06:24:17;-7.80;99.90
24462;DHT22;12631;50.860;5.714;2022-12-18T06:26:44;-7.80;99.90
24462;DHT22;12631;50.860;5.714;2022-12-18T06:29:13;-7.90;99.90
24462;DHT22;12631;50.860;5.714;2022-12-18T06:31:40;-7.90;99.90
24462;DHT22;12631;50.860;5.714;2022-12-18T06:34:07;-8.00;99.90
24462;DHT22;12631;50.860;5.714;2022-12-18T06:36:34;-8.10;99.90
24462;DHT22;12631;50.860;5.714;2022-12-18T06:39:02;-8.20;99.90
24462;DHT22;12631;50.860;5.714;2022-12-18T06:41:29;-8.30;99.90
24462;DHT22;12631;50.860;5.714;2022-12-18T06:43:57;-8.30;99.90
24462;DHT22;12631;50.860;5.714;2022-12-18T06:46:26;-8.30;99.90
24462;DHT22;12631;50.860;5.714;2022-12-18T06:48:53;-8.20;99.90
24462;DHT22;12631;50.860;5.714;2022-12-18T06:51:21;-8.30;99.90
24462;DHT22;12631;50.860;5.714;2022-12-18T06:53:49;-8.30;99.90
24462;DHT22;12631;50.860;5.714;2022-12-18T06:56:16;-8.20;99.90
24462;DHT22;12631;50.860;5.714;2022-12-18T06:58:44;-8.30;99.90
24462;DHT22;12631;50.860;5.714;2022-12-18T07:01:11;-8.30;99.90
24462;DHT22;12631;50.860;5.714;2022-12-18T07:03:40;-8.30;99.90
24462;DHT22;12631;50.860;5.714;2022-12-18T07:06:14;-8.20;99.90
24462;DHT22;12631;50.860;5.714;2022-12-18T07:08:42;-8.10;99.90
24462;DHT22;12631;50.860;5.714;2022-12-18T07:11:09;-8.00;99.90
24462;DHT22;12631;50.860;5.714;2022-12-18T07:13:36;-7.90;99.90
24462;DHT22;12631;50.860;5.714;2022-12-18T07:16:05;-7.90;99.90
24462;DHT22;12631;50.860;5.714;2022-12-18T07:18:33;-8.00;99.90
24462;DHT22;12631;50.860;5.714;2022-12-18T07:21:04;-8.00;99.90
24462;DHT22;12631;50.860;5.714;2022-12-18T07:23:32;-8.00;99.90
24462;DHT22;12631;50.860;5.714;2022-12-18T07:26:01;-8.00;99.90
24462;DHT22;12631;50.860;5.714;2022-12-18T07:28:29;-7.90;99.90
24462;DHT22;12631;50.860;5.714;2022-12-18T07:30:56;-8.10;99.90
24462;DHT22;12631;50.860;5.714;2022-12-18T07:33:24;-8.00;94.50
24462;DHT22;12631;50.860;5.714;2022-12-18T07:35:52;-8.10;73.40
24462;DHT22;12631;50.860;5.714;2022-12-18T07:38:21;-8.10;57.60
24462;DHT22;12631;50.860;5.714;2022-12-18T07:40:48;-8.10;41.00
24462;DHT22;12631;50.860;5.714;2022-12-18T07:43:15;-8.00;68.50
24462;DHT22;12631;50.860;5.714;2022-12-18T07:45:43;-7.80;92.10
24462;DHT22;12631;50.860;5.714;2022-12-18T07:48:10;-7.60;95.00
24462;DHT22;12631;50.860;5.714;2022-12-18T07:50:38;-7.60;87.50
24462;DHT22;12631;50.860;5.714;2022-12-18T07:53:05;-7.50;69.10
24462;DHT22;12631;50.860;5.714;2022-12-18T07:55:34;-7.50;48.30
24462;DHT22;12631;50.860;5.714;2022-12-18T07:58:01;-7.40;27.40
24462;DHT22;12631;50.860;5.714;2022-12-18T08:00:29;-7.30;11.10
24462;DHT22;12631;50.860;5.714;2022-12-18T08:02:57;-7.20;1.80
24462;DHT22;12631;50.860;5.714;2022-12-18T08:05:24;-7.10;1.00
24462;DHT22;12631;50.860;5.714;2022-12-18T08:07:51;-6.90;1.00
24462;DHT22;12631;50.860;5.714;2022-12-18T08:10:19;-6.80;1.00
24462;DHT22;12631;50.860;5.714;2022-12-18T08:12:49;-6.60;1.00
24462;DHT22;12631;50.860;5.714;2022-12-18T08:15:16;-6.50;1.00
24462;DHT22;12631;50.860;5.714;2022-12-18T08:17:44;-6.30;1.00
24462;DHT22;12631;50.860;5.714;2022-12-18T08:20:11;-6.20;1.00
24462;DHT22;12631;50.860;5.714;2022-12-18T08:22:39;-6.20;1.00
24462;DHT22;12631;50.860;5.714;2022-12-18T08:25:07;-6.10;1.00
24462;DHT22;12631;50.860;5.714;2022-12-18T08:27:35;-5.90;99.90
24462;DHT22;12631;50.860;5.714;2022-12-18T08:30:05;-5.70;99.90
24462;DHT22;12631;50.860;5.714;2022-12-18T08:32:32;-5.40;99.90
24462;DHT22;12631;50.860;5.714;2022-12-18T08:34:59;-5.20;99.90
24462;DHT22;12631;50.860;5.714;2022-12-18T08:37:26;-4.90;24.90
24462;DHT22;12631;50.860;5.714;2022-12-18T08:39:54;-4.80;1.00
24462;DHT22;12631;50.860;5.714;2022-12-18T08:42:21;-4.70;1.00
24462;DHT22;12631;50.860;5.714;2022-12-18T08:45:08;-4.70;99.90
24462;DHT22;12631;50.860;5.714;2022-12-18T08:47:36;-4.60;1.00
24462;DHT22;12631;50.860;5.714;2022-12-18T08:50:03;-4.20;67.80
24462;DHT22;12631;50.860;5.714;2022-12-18T08:52:32;-4.10;1.00
24462;DHT22;12631;50.860;5.714;2022-12-18T08:54:59;-3.50;1.00
24462;DHT22;12631;50.860;5.714;2022-12-18T08:57:26;-3.20;99.90
24462;DHT22;12631;50.860;5.714;2022-12-18T08:59:53;-3.00;1.00
24462;DHT22;12631;50.860;5.714;2022-12-18T09:02:22;-2.80;1.00
24462;DHT22;12631;50.860;5.714;2022-12-18T09:04:49;-2.50;1.00
24462;DHT22;12631;50.860;5.714;2022-12-18T09:07:17;-1.80;99.90
24462;DHT22;12631;50.860;5.714;2022-12-18T09:09:44;-2.00;99.90
24462;DHT22;12631;50.860;5.714;2022-12-18T09:12:11;-2.40;1.00
24462;DHT22;12631;50.860;5.714;2022-12-18T09:14:39;-2.40;1.00
24462;DHT22;12631;50.860;5.714;2022-12-18T09:17:06;-2.50;1.00
24462;DHT22;12631;50.860;5.714;2022-12-18T09:19:34;-2.60;1.00
24462;DHT22;12631;50.860;5.714;2022-12-18T09:22:01;-2.90;1.00
24462;DHT22;12631;50.860;5.714;2022-12-18T09:24:29;-3.20;1.00
24462;DHT22;12631;50.860;5.714;2022-12-18T09:26:56;-3.20;18.20
24462;DHT22;12631;50.860;5.714;2022-12-18T09:29:23;-3.10;84.50
24462;DHT22;12631;50.860;5.714;2022-12-18T09:31:51;-3.30;93.30
24462;DHT22;12631;50.860;5.714;2022-12-18T09:34:18;-3.50;78.60
24462;DHT22;12631;50.860;5.714;2022-12-18T09:36:48;-3.10;99.90
24462;DHT22;12631;50.860;5.714;2022-12-18T09:39:15;-2.80;99.90
24462;DHT22;12631;50.860;5.714;2022-12-18T09:41:45;-2.60;99.90
24462;DHT22;12631;50.860;5.714;2022-12-18T09:44:22;-2.40;94.10
24462;DHT22;12631;50.860;5.714;2022-12-18T09:46:55;-2.30;40.70
24462;DHT22;12631;50.860;5.714;2022-12-18T09:49:28;-2.40;1.00
24462;DHT22;12631;50.860;5.714;2022-12-18T09:52:02;-2.40;1.00
24462;DHT22;12631;50.860;5.714;2022-12-18T09:54:33;-2.30;1.00
24462;DHT22;12631;50.860;5.714;2022-12-18T09:57:02;-2.30;1.00
24462;DHT22;12631;50.860;5.714;2022-12-18T09:59:34;-1.90;1.00
24462;DHT22;12631;50.860;5.714;2022-12-18T10:02:17;-1.60;1.00
24462;DHT22;12631;50.860;5.714;2022-12-18T10:04:48;-1.60;1.00
24462;DHT22;12631;50.860;5.714;2022-12-18T10:07:24;-1.70;1.00
24462;DHT22;12631;50.860;5.714;2022-12-18T10:09:59;-1.80;1.00
24462;DHT22;12631;50.860;5.714;2022-12-18T10:12:34;-1.80;1.00
24462;DHT22;12631;50.860;5.714;2022-12-18T10:15:10;-1.90;1.00
24462;DHT22;12631;50.860;5.714;2022-12-18T10:17:45;-1.60;1.00
24462;DHT22;12631;50.860;5.714;2022-12-18T10:20:18;-1.40;1.00
24462;DHT22;12631;50.860;5.714;2022-12-18T10:22:55;-1.60;1.00
24462;DHT22;12631;50.860;5.714;2022-12-18T10:25:26;-1.90;1.00
24462;DHT22;12631;50.860;5.714;2022-12-18T10:27:59;-2.00;1.00
24462;DHT22;12631;50.860;5.714;2022-12-18T10:30:27;-1.90;1.00
24462;DHT22;12631;50.860;5.714;2022-12-18T10:33:00;-1.90;1.00
24462;DHT22;12631;50.860;5.714;2022-12-18T10:35:27;-1.60;1.00
24462;DHT22;12631;50.860;5.714;2022-12-18T10:38:06;-1.50;1.00
24462;DHT22;12631;50.860;5.714;2022-12-18T10:40:50;-1.60;1.00
24462;DHT22;12631;50.860;5.714;2022-12-18T10:43:21;-1.80;1.00
24462;DHT22;12631;50.860;5.714;2022-12-18T10:46:00;-1.70;1.00
24462;DHT22;12631;50.860;5.714;2022-12-18T10:48:29;-1.50;1.00
24462;DHT22;12631;50.860;5.714;2022-12-18T10:50:57;-1.40;1.00
24462;DHT22;12631;50.860;5.714;2022-12-18T10:53:28;-1.50;1.00
24462;DHT22;12631;50.860;5.714;2022-12-18T10:56:00;-1.20;1.00
24462;DHT22;12631;50.860;5.714;2022-12-18T10:58:30;-1.10;1.00
24462;DHT22;12631;50.860;5.714;2022-12-18T11:01:08;-1.20;1.00
24462;DHT22;12631;50.860;5.714;2022-12-18T11:03:37;-1.20;1.00
24462;DHT22;12631;50.860;5.714;2022-12-18T11:06:07;-1.20;1.00
24462;DHT22;12631;50.860;5.714;2022-12-18T11:08:36;-1.20;1.00
24462;DHT22;12631;50.860;5.714;2022-12-18T11:11:07;-1.10;1.00
24462;DHT22;12631;50.860;5.714;2022-12-18T11:13:57;-1.20;1.00
24462;DHT22;12631;50.860;5.714;2022-12-18T11:16:26;-1.30;1.00
24462;DHT22;12631;50.860;5.714;2022-12-18T11:18:54;-1.30;1.00
24462;DHT22;12631;50.860;5.714;2022-12-18T11:21:22;-1.20;1.00
24462;DHT22;12631;50.860;5.714;2022-12-18T11:23:53;-1.10;1.00
24462;DHT22;12631;50.860;5.714;2022-12-18T11:26:21;-1.00;1.00
24462;DHT22;12631;50.860;5.714;2022-12-18T11:29:08;-1.00;1.00
24462;DHT22;12631;50.860;5.714;2022-12-18T11:31:36;-1.00;1.00
24462;DHT22;12631;50.860;5.714;2022-12-18T11:34:09;-1.00;1.00
24462;DHT22;12631;50.860;5.714;2022-12-18T11:36:42;-0.90;1.00
24462;DHT22;12631;50.860;5.714;2022-12-18T11:39:17;-0.80;1.00
24462;DHT22;12631;50.860;5.714;2022-12-18T11:41:50;-0.80;1.00
24462;DHT22;12631;50.860;5.714;2022-12-18T11:44:45;-0.80;1.00
24462;DHT22;12631;50.860;5.714;2022-12-18T11:47:21;-0.80;1.00
24462;DHT22;12631;50.860;5.714;2022-12-18T11:49:53;-0.80;1.00
24462;DHT22;12631;50.860;5.714;2022-12-18T11:52:25;-0.80;1.00
24462;DHT22;12631;50.860;5.714;2022-12-18T11:54:58;-0.70;1.00
24462;DHT22;12631;50.860;5.714;2022-12-18T11:57:34;-0.70;1.00
24462;DHT22;12631;50.860;5.714;2022-12-18T12:00:11;-0.70;1.00
24462;DHT22;12631;50.860;5.714;2022-12-18T12:05:48;-0.50;1.00
24462;DHT22;12631;50.860;5.714;2022-12-18T12:08:27;-0.40;1.00
24462;DHT22;12631;50.860;5.714;2022-12-18T12:11:06;-0.20;1.00
24462;DHT22;12631;50.860;5.714;2022-12-18T12:13:45;0.00;1.00
24462;DHT22;12631;50.860;5.714;2022-12-18T12:16:17;0.00;1.00
24462;DHT22;12631;50.860;5.714;2022-12-18T12:19:10;0.00;1.00
24462;DHT22;12631;50.860;5.714;2022-12-18T12:21:48;0.10;1.00
24462;DHT22;12631;50.860;5.714;2022-12-18T12:24:27;0.10;1.00
24462;DHT22;12631;50.860;5.714;2022-12-18T12:27:05;0.20;1.00
24462;DHT22;12631;50.860;5.714;2022-12-18T12:29:45;0.10;1.00
24462;DHT22;12631;50.860;5.714;2022-12-18T12:32:22;0.20;1.00
24462;DHT22;12631;50.860;5.714;2022-12-18T12:35:02;0.30;1.00
24462;DHT22;12631;50.860;5.714;2022-12-18T12:37:40;0.30;1.00
24462;DHT22;12631;50.860;5.714;2022-12-18T12:40:12;0.40;1.00
24462;DHT22;12631;50.860;5.714;2022-12-18T12:42:44;0.40;1.00
24462;DHT22;12631;50.860;5.714;2022-12-18T12:45:36;0.50;1.00
24462;DHT22;12631;50.860;5.714;2022-12-18T12:48:13;0.50;1.00
24462;DHT22;12631;50.860;5.714;2022-12-18T12:50:42;0.50;1.00
24462;DHT22;12631;50.860;5.714;2022-12-18T12:53:17;0.50;1.00
24462;DHT22;12631;50.860;5.714;2022-12-18T12:55:48;0.60;1.00
24462;DHT22;12631;50.860;5.714;2022-12-18T12:58:22;0.70;1.00
24462;DHT22;12631;50.860;5.714;2022-12-18T13:00:57;0.80;1.00
24462;DHT22;12631;50.860;5.714;2022-12-18T13:03:35;0.90;1.00
24462;DHT22;12631;50.860;5.714;2022-12-18T13:06:08;0.90;1.00
24462;DHT22;12631;50.860;5.714;2022-12-18T13:08:54;1.00;1.00
24462;DHT22;12631;50.860;5.714;2022-12-18T13:11:31;1.10;1.00
24462;DHT22;12631;50.860;5.714;2022-12-18T13:14:30;1.10;1.00
24462;DHT22;12631;50.860;5.714;2022-12-18T13:17:29;1.10;1.00
24462;DHT22;12631;50.860;5.714;2022-12-18T13:20:07;1.10;1.00
24462;DHT22;12631;50.860;5.714;2022-12-18T13:22:37;1.10;1.00
24462;DHT22;12631;50.860;5.714;2022-12-18T13:25:33;1.20;1.00
24462;DHT22;12631;50.860;5.714;2022-12-18T13:28:06;1.20;1.00
24462;DHT22;12631;50.860;5.714;2022-12-18T13:30:53;1.30;1.00
24462;DHT22;12631;50.860;5.714;2022-12-18T13:33:47;1.30;1.00
24462;DHT22;12631;50.860;5.714;2022-12-18T13:36:27;1.40;1.00
24462;DHT22;12631;50.860;5.714;2022-12-18T13:39:22;1.40;1.00
24462;DHT22;12631;50.860;5.714;2022-12-18T13:41:52;1.50;1.00
24462;DHT22;12631;50.860;5.714;2022-12-18T13:44:30;1.50;1.00
24462;DHT22;12631;50.860;5.714;2022-12-18T13:47:00;1.50;1.00
24462;DHT22;12631;50.860;5.714;2022-12-18T13:49:36;1.40;1.00
24462;DHT22;12631;50.860;5.714;2022-12-18T13:52:16;1.40;1.00
24462;DHT22;12631;50.860;5.714;2022-12-18T13:54:49;1.40;1.00
24462;DHT22;12631;50.860;5.714;2022-12-18T13:57:27;1.20;1.00
24462;DHT22;12631;50.860;5.714;2022-12-18T13:59:55;1.20;1.00
24462;DHT22;12631;50.860;5.714;2022-12-18T14:02:25;1.20;1.00
24462;DHT22;12631;50.860;5.714;2022-12-18T14:04:54;1.00;1.00
24462;DHT22;12631;50.860;5.714;2022-12-18T14:07:24;0.90;1.00
24462;DHT22;12631;50.860;5.714;2022-12-18T14:09:53;0.80;1.00
24462;DHT22;12631;50.860;5.714;2022-12-18T14:12:24;0.70;7.20
24462;DHT22;12631;50.860;5.714;2022-12-18T14:15:23;0.60;94.50
24462;DHT22;12631;50.860;5.714;2022-12-18T14:17:56;0.50;99.90
24462;DHT22;12631;50.860;5.714;2022-12-18T14:20:25;0.40;99.90
24462;DHT22;12631;50.860;5.714;2022-12-18T14:22:56;0.40;99.90
24462;DHT22;12631;50.860;5.714;2022-12-18T14:25:25;0.40;99.90
24462;DHT22;12631;50.860;5.714;2022-12-18T14:28:02;0.40;99.90
24462;DHT22;12631;50.860;5.714;2022-12-18T14:30:36;0.40;99.90
24462;DHT22;12631;50.860;5.714;2022-12-18T14:33:08;0.40;99.90
24462;DHT22;12631;50.860;5.714;2022-12-18T14:35:37;0.40;99.90
24462;DHT22;12631;50.860;5.714;2022-12-18T14:38:20;0.40;1.00
24462;DHT22;12631;50.860;5.714;2022-12-18T14:40:51;0.40;99.90
24462;DHT22;12631;50.860;5.714;2022-12-18T14:43:19;0.40;99.90
24462;DHT22;12631;50.860;5.714;2022-12-18T14:45:46;0.40;99.90
24462;DHT22;12631;50.860;5.714;2022-12-18T14:48:18;0.40;1.00
24462;DHT22;12631;50.860;5.714;2022-12-18T14:50:55;0.40;1.00
24462;DHT22;12631;50.860;5.714;2022-12-18T14:53:28;0.30;1.00
24462;DHT22;12631;50.860;5.714;2022-12-18T14:55:58;0.40;1.00
24462;DHT22;12631;50.860;5.714;2022-12-18T14:58:26;0.30;1.00
24462;DHT22;12631;50.860;5.714;2022-12-18T15:00:54;0.30;1.00
24462;DHT22;12631;50.860;5.714;2022-12-18T15:03:22;0.30;1.00
24462;DHT22;12631;50.860;5.714;2022-12-18T15:05:50;0.30;1.00
24462;DHT22;12631;50.860;5.714;2022-12-18T15:08:34;0.20;1.00
24462;DHT22;12631;50.860;5.714;2022-12-18T15:11:01;0.20;1.00
